Time;durP1;ratioP1;P1;durP2;ratioP2;P2;SDS_P1;SDS_P2;PMS_P1;PMS_P2;Temp;Humidity;BMP_temperature;BMP_pressure;BME280_temperature;BME280_humidity;BME280_pressure;Samples;Min_cycle;Max_cycle;Signal;HPM_P1;HPM_P2
2022/05/11 00:07:06;;;;;;;1999.90;999.90;;;;;;;21.81;51.63;100869.91;15712667;22;20071;-58
2022/05/11 00:14:38;;;;;;;1999.90;999.90;;;;;;;21.59;53.00;100874.78;15700012;28;20122;-55
2022/05/11 00:22:12;;;;;;;1999.90;999.90;;;;;;;21.31;54.76;100875.56;15681522;28;20110;-58
2022/05/11 00:29:44;;;;;;;1999.90;999.90;;;;;;;21.19;55.59;100868.19;15694210;28;20083;-58
2022/05/11 00:37:18;;;;;;;1999.90;999.90;;;;;;;21.03;56.94;100862.06;15700911;28;20123;-57
2022/05/11 00:44:50;;;;;;;1999.90;999.90;;;;;;;21.19;57.42;100912.78;15685113;28;20406;-60
2022/05/11 00:52:29;;;;;;;1999.90;999.90;;;;;;;21.01;58.39;100901.38;15674569;28;20041;-59
2022/05/11 01:00:04;;;;;;;1999.90;999.90;;;;;;;20.66;60.28;100885.03;15714248;28;20156;-58
2022/05/11 01:07:38;;;;;;;1999.90;999.90;;;;;;;20.69;61.02;100889.91;15703682;28;20044;-58
2022/05/11 01:15:13;;;;;;;198.60;180.73;;;;;;;20.38;62.40;100877.16;15699141;28;20076;-58
2022/05/11 01:22:53;;;;;;;322.33;292.13;;;;;;;20.14;62.80;100842.63;15682018;28;20485;-58
2022/05/11 01:30:27;;;;;;;1564.50;807.88;;;;;;;20.23;62.01;100816.78;15701336;28;20099;-58
2022/05/11 01:38:08;;;;;;;1999.90;999.90;;;;;;;20.11;61.64;100837.75;15677385;28;20041;-59
2022/05/11 01:45:41;;;;;;;1999.90;999.90;;;;;;;20.29;61.14;100828.53;15715323;28;20060;-59
2022/05/11 01:53:14;;;;;;;1999.90;999.90;;;;;;;20.24;61.02;100812.72;15697981;28;20093;-57
2022/05/11 02:00:48;;;;;;;1999.90;999.90;;;;;;;20.10;60.90;100796.44;15716884;28;20060;-57
2022/05/11 02:08:21;;;;;;;1999.90;999.90;;;;;;;20.02;61.36;100800.47;15673850;28;20044;-59
2022/05/11 02:15:55;;;;;;;1999.90;999.90;;;;;;;20.25;61.33;100827.69;15708806;28;20048;-57
2022/05/11 02:23:28;;;;;;;1548.28;789.80;;;;;;;20.52;60.26;100828.25;15678516;28;20049;-57
2022/05/11 02:31:01;;;;;;;1999.90;999.90;;;;;;;20.48;60.92;100839.59;15705617;28;20048;-59
2022/05/11 02:38:34;;;;;;;1999.90;999.90;;;;;;;20.36;60.88;100849.22;15704269;28;20045;-56
2022/05/11 02:46:09;;;;;;;1560.90;804.17;;;;;;;20.52;61.22;100863.06;15699758;28;20044;-57
2022/05/11 02:53:41;;;;;;;1574.30;815.72;;;;;;;20.25;61.82;100873.84;15700474;28;20033;-58
2022/05/11 03:01:15;;;;;;;414.17;368.93;;;;;;;20.40;61.73;100857.72;15652369;28;20485;-59
2022/05/11 03:08:48;;;;;;;1574.88;816.78;;;;;;;20.33;61.76;100852.03;15685464;28;20044;-58
2022/05/11 03:16:22;;;;;;;314.03;288.20;;;;;;;20.24;62.30;100866.56;15678267;28;20053;-56
2022/05/11 03:23:54;;;;;;;436.17;394.25;;;;;;;20.28;61.89;100864.53;15677659;28;20037;-59
2022/05/11 03:31:27;;;;;;;393.02;355.13;;;;;;;20.16;62.52;100870.56;15681735;28;20044;-58
2022/05/11 03:39:00;;;;;;;355.02;323.52;;;;;;;20.03;62.88;100884.22;15695091;28;20078;-57
2022/05/11 03:46:33;;;;;;;348.38;321.70;;;;;;;20.05;64.16;100883.81;15703987;28;20056;-57
2022/05/11 03:54:05;;;;;;;398.70;367.77;;;;;;;20.10;64.54;100881.41;15711534;28;20045;-58
2022/05/11 04:01:39;;;;;;;367.63;340.17;;;;;;;20.22;64.12;100893.63;15724841;28;20071;-59
2022/05/11 04:09:11;;;;;;;306.23;285.95;;;;;;;20.20;65.94;100894.03;15716209;28;20112;-59
2022/05/11 04:16:45;;;;;;;316.35;295.88;;;;;;;20.13;66.70;100888.34;15757727;22;20102;-59
2022/05/11 04:24:17;;;;;;;347.40;324.10;;;;;;;20.10;67.33;100895.59;15755882;28;20045;-60
2022/05/11 04:31:54;;;;;;;335.73;312.57;;;;;;;20.03;67.99;100895.56;15734755;28;20032;-61
2022/05/11 04:39:27;;;;;;;374.33;347.88;;;;;;;20.03;68.39;100895.56;15743592;28;20048;-60
2022/05/11 04:47:06;;;;;;;495.87;459.47;;;;;;;20.26;69.20;100886.00;15709015;28;20037;-59
2022/05/11 04:54:48;;;;;;;518.22;481.00;;;;;;;20.29;69.40;100897.34;15688415;28;20468;-60
2022/05/11 05:02:23;;;;;;;509.75;472.10;;;;;;;20.38;69.79;100888.50;15688074;28;20099;-60
2022/05/11 05:09:56;;;;;;;495.55;459.73;;;;;;;20.16;70.78;100884.72;15728046;28;20656;-58
2022/05/11 05:17:29;;;;;;;438.53;407.07;;;;;;;19.92;72.26;100874.84;15692161;28;20060;-59
2022/05/11 05:25:02;;;;;;;453.00;420.75;;;;;;;19.92;71.21;100866.34;15703656;28;20044;-59
2022/05/11 05:32:37;;;;;;;436.03;404.57;;;;;;;19.60;73.01;100877.41;15688770;28;20041;-58
2022/05/11 05:40:10;;;;;;;398.85;366.95;;;;;;;19.79;74.12;100888.47;15682109;28;20106;-57
2022/05/11 05:47:44;;;;;;;;;;;;;;;20.33;70.48;100900.22;15695727;28;20048;-60
2022/05/11 05:55:19;;;;;;;422.42;390.92;;;;;;;20.42;70.47;100903.47;15726347;28;19921;-61
2022/05/11 06:02:54;;;;;;;490.92;453.27;;;;;;;20.47;71.42;100888.97;15694109;28;20051;-61
2022/05/11 06:10:27;;;;;;;527.83;487.63;;;;;;;20.52;70.33;100910.47;15681285;28;20052;-61
2022/05/11 06:18:03;;;;;;;405.52;375.65;;;;;;;20.37;68.65;100898.22;15680294;28;20053;-61
2022/05/11 06:25:38;;;;;;;386.58;357.52;;;;;;;19.83;70.09;100863.03;15680756;28;20044;-61
2022/05/11 06:33:11;;;;;;;410.88;377.73;;;;;;;19.93;70.05;100847.34;15680890;28;20044;-60
2022/05/11 06:40:44;;;;;;;628.50;573.03;;;;;;;19.94;68.17;100832.78;15680167;28;20474;-60
2022/05/11 06:48:17;;;;;;;496.83;451.47;;;;;;;20.66;66.23;100857.50;15673564;28;20059;-61
2022/05/11 07:03:41;;;;;;;413.85;381.95;;;;;;;20.87;62.97;100855.97;15674574;28;20037;-62
2022/05/11 07:19:05;;;;;;;1999.90;999.90;;;;;;;22.60;57.95;100822.25;15674238;28;20476;-59
2022/05/11 07:26:37;;;;;;;1999.90;999.90;;;;;;;22.98;54.54;100818.41;15675352;28;20139;-59
2022/05/11 07:34:11;;;;;;;1999.90;999.90;;;;;;;22.10;56.06;100816.75;15675437;28;20053;-59
2022/05/11 07:41:44;;;;;;;1999.90;999.90;;;;;;;23.96;51.95;100808.69;15653926;28;20045;-59
2022/05/11 07:49:18;;;;;;;1999.90;999.90;;;;;;;24.14;52.46;100791.41;15674716;28;20049;-59
2022/05/11 08:04:44;;;;;;;1999.90;999.90;;;;;;;25.00;48.26;100791.13;15664978;28;20120;-60
2022/05/11 08:12:16;;;;;;;1999.90;999.90;;;;;;;25.56;47.31;100783.75;15671596;28;20044;-60
2022/05/11 08:19:50;;;;;;;1999.90;999.90;;;;;;;26.72;43.17;100767.63;15682863;28;20053;-61
2022/05/11 08:27:26;;;;;;;1999.90;999.90;;;;;;;26.38;44.44;100762.22;15686058;28;20072;-61
2022/05/11 08:35:00;;;;;;;1999.90;999.90;;;;;;;26.20;43.59;100747.47;15666074;28;20045;-60
2022/05/11 08:42:34;;;;;;;1999.90;999.90;;;;;;;27.83;41.25;100737.09;15683926;28;20037;-60
2022/05/11 08:50:12;;;;;;;1999.90;999.90;;;;;;;27.53;40.24;100726.81;15671388;28;20045;-59
2022/05/11 08:57:48;;;;;;;1999.90;999.90;;;;;;;26.54;43.38;100717.75;15682130;28;20052;-59
2022/05/11 09:05:26;;;;;;;1999.90;999.90;;;;;;;27.00;41.81;100717.47;15662099;28;20056;-57
2022/05/11 09:13:18;;;;;;;1999.90;999.90;;;;;;;27.28;40.57;100715.19;15680088;28;20076;-61
2022/05/11 09:20:53;;;;;;;1999.90;999.90;;;;;;;29.15;39.10;100703.59;15677109;28;20056;-60
2022/05/11 09:28:28;;;;;;;1999.90;999.90;;;;;;;28.55;38.94;100691.97;15678832;28;20060;-60
2022/05/11 09:36:03;;;;;;;1999.90;999.90;;;;;;;30.09;36.73;100686.28;15662243;28;20053;-55
2022/05/11 09:43:38;;;;;;;1999.90;999.90;;;;;;;29.56;37.17;100666.03;15674270;28;20071;-60
2022/05/11 09:51:23;;;;;;;1999.90;999.90;;;;;;;30.45;34.66;100651.19;15690205;28;20048;-59
2022/05/11 09:58:56;;;;;;;1999.90;999.90;;;;;;;32.23;32.49;100639.00;15683547;28;20048;-59
2022/05/11 10:06:35;;;;;;;1999.90;999.90;;;;;;;32.12;31.95;100634.53;15678420;28;20052;-59
2022/05/11 10:22:22;;;;;;;1999.90;999.90;;;;;;;33.01;29.69;100606.25;15706000;28;20552;-74
2022/05/11 10:30:04;;;;;;;1999.90;999.90;;;;;;;32.77;31.41;100597.56;15718200;28;20041;-73
2022/05/11 10:37:48;;;;;;;1999.90;999.90;;;;;;;33.47;30.89;100591.50;15768326;28;20066;-74
2022/05/11 10:45:23;;;;;;;1999.90;999.90;;;;;;;31.57;33.05;100565.34;15735259;28;20025;-73
2022/05/11 10:53:19;;;;;;;1999.90;999.90;;;;;;;33.78;30.21;100562.13;15711798;28;20501;-74
2022/05/11 11:00:56;;;;;;;1999.90;999.90;;;;;;;32.04;31.60;100555.34;15667003;28;20025;-74
2022/05/11 11:08:42;;;;;;;1999.90;999.90;;;;;;;31.86;31.76;100538.06;15728303;28;20147;-74
2022/05/11 11:16:15;;;;;;;1999.90;999.90;;;;;;;30.26;33.53;100545.09;15740273;28;20060;-74
2022/05/11 11:24:17;;;;;;;1999.90;999.90;;;;;;;32.60;28.60;100522.06;15752446;28;20051;-74
2022/05/11 11:32:05;;;;;;;1999.90;999.90;;;;;;;31.63;30.46;100527.22;15752238;28;20052;-73
2022/05/11 11:39:53;;;;;;;1999.90;999.90;;;;;;;33.22;26.43;100515.53;15752412;28;20067;-74
2022/05/11 11:47:41;;;;;;;1999.90;999.90;;;;;;;32.47;27.35;100495.50;15708736;28;20039;-73
2022/05/11 11:55:27;;;;;;;1999.90;999.90;;;;;;;32.96;27.74;100500.81;15755213;28;20075;-73
2022/05/11 12:03:00;;;;;;;1999.90;999.90;;;;;;;32.89;25.63;100483.84;15782433;28;20098;-74
